Time;durP1;ratioP1;P1;durP2;ratioP2;P2;SDS_P1;SDS_P2;PMS_P1;PMS_P2;Temp;Humidity;BMP_temperature;BMP_pressure;BME280_temperature;BME280_humidity;BME280_pressure;Samples;Min_cycle;Max_cycle;Signal;HPM_P1;HPM_P2
2024/04/07 00:00:31;;;;;;;;;;;13.50;1.00;;;;;;5062201;28;19990;-77
2024/04/07 00:03:02;;;;;;;;;;;13.40;1.00;;;;;;5047807;28;19913;-77
2024/04/07 00:05:27;;;;;;;;;;;13.40;1.00;;;;;;5052569;28;19975;-76
2024/04/07 00:08:02;;;;;;;;;;;13.30;1.00;;;;;;5055661;28;20368;-76
2024/04/07 00:10:35;;;;;;;;;;;13.30;1.00;;;;;;5039462;28;19916;-77
2024/04/07 00:13:32;;;;;;;;;;;13.30;1.00;;;;;;5046127;28;20380;-77
2024/04/07 00:19:00;;;;;;;;;;;13.20;1.00;;;;;;5042366;28;19959;-77
2024/04/07 00:21:44;;;;;;;;;;;13.10;1.00;;;;;;5075310;28;19916;-77
2024/04/07 00:24:09;;;;;;;;;;;13.10;1.00;;;;;;5051646;28;19917;-77
2024/04/07 00:32:41;;;;;;;;;;;13.00;1.00;;;;;;5043554;28;19916;-77
2024/04/07 00:35:07;;;;;;;;;;;12.90;1.00;;;;;;5062271;28;19912;-77
2024/04/07 00:41:02;;;;;;;;;;;12.80;1.00;;;;;;5045420;28;19909;-76
2024/04/07 00:43:40;;;;;;;;;;;12.80;1.00;;;;;;5046197;28;20372;-76
2024/04/07 00:46:08;;;;;;;;;;;12.80;1.00;;;;;;5057414;28;19982;-76
2024/04/07 00:48:38;;;;;;;;;;;12.80;1.00;;;;;;5048493;28;20319;-76
2024/04/07 00:51:19;;;;;;;;;;;12.70;1.00;;;;;;5056925;28;19944;-77
2024/04/07 00:53:50;;;;;;;;;;;12.60;1.00;;;;;;5063651;28;19909;-76
2024/04/07 00:56:15;;;;;;;;;;;12.60;1.00;;;;;;5062006;28;20000;-76
2024/04/07 00:58:41;;;;;;;;;;;12.50;1.00;;;;;;5057610;28;19966;-76
2024/04/07 01:01:38;;;;;;;;;;;12.40;1.00;;;;;;5061273;28;19996;-76
2024/04/07 01:04:14;;;;;;;;;;;12.40;1.00;;;;;;5041990;28;19916;-76
2024/04/07 01:06:39;;;;;;;;;;;12.30;1.00;;;;;;5054758;28;19951;-76
2024/04/07 01:09:14;;;;;;;;;;;12.30;1.00;;;;;;5041751;28;19944;-77
2024/04/07 01:18:07;;;;;;;;;;;12.20;1.00;;;;;;5050886;28;19924;-76
2024/04/07 01:20:33;;;;;;;;;;;12.20;1.00;;;;;;5037004;28;19917;-76
2024/04/07 01:23:17;;;;;;;;;;;12.80;1.00;;;;;;5047075;28;19932;-76
2024/04/07 01:26:01;;;;;;;;;;;12.10;1.00;;;;;;5042822;28;19940;-77
2024/04/07 01:28:32;;;;;;;;;;;12.00;1.00;;;;;;5059982;28;19913;-77
2024/04/07 01:30:57;;;;;;;;;;;12.00;1.00;;;;;;5054084;28;20508;-78
2024/04/07 01:33:32;;;;;;;;;;;12.00;1.00;;;;;;5053737;28;19964;-77
2024/04/07 01:39:01;;;;;;;;;;;11.90;1.00;;;;;;5034201;28;19964;-77
2024/04/07 01:41:32;;;;;;;;;;;11.80;1.00;;;;;;5052636;28;19913;-77
2024/04/07 01:43:57;;;;;;;;;;;11.80;1.00;;;;;;5062637;28;19913;-77
2024/04/07 01:46:32;;;;;;;;;;;11.80;1.00;;;;;;5035845;28;19909;-77
2024/04/07 01:49:02;;;;;;;;;;;11.70;1.00;;;;;;5042635;28;19912;-77
2024/04/07 01:51:32;;;;;;;;;;;11.70;1.00;;;;;;5065745;28;19939;-77
2024/04/07 01:53:57;;;;;;;;;;;11.80;1.00;;;;;;5043845;28;19910;-76
2024/04/07 01:56:26;;;;;;;;;;;11.70;1.00;;;;;;5054206;28;19912;-76
2024/04/07 01:59:25;;;;;;;;;;;11.60;1.00;;;;;;5051532;28;21449;-77
2024/04/07 02:02:02;;;;;;;;;;;11.70;1.00;;;;;;5046384;28;19913;-77
2024/04/07 02:04:32;;;;;;;;;;;11.60;1.00;;;;;;5053298;28;19913;-75
2024/04/07 02:07:08;;;;;;;;;;;11.70;1.00;;;;;;5053489;28;19909;-76
2024/04/07 02:09:38;;;;;;;;;;;11.70;1.00;;;;;;5049048;28;19917;-77
2024/04/07 02:12:14;;;;;;;;;;;11.70;1.00;;;;;;5036391;28;19909;-77
2024/04/07 02:17:42;;;;;;;;;;;11.70;1.00;;;;;;5053094;28;19944;-77
2024/04/07 02:23:11;;;;;;;;;;;11.70;1.00;;;;;;5053274;28;19927;-78
2024/04/07 02:26:08;;;;;;;;;;;11.80;1.00;;;;;;5053384;28;19908;-76
2024/04/07 02:28:44;;;;;;;;;;;11.80;1.00;;;;;;5049281;28;20360;-76
2024/04/07 02:34:26;;;;;;;;;;;11.90;1.00;;;;;;5040348;28;19955;-76
2024/04/07 02:39:54;;;;;;;;;;;11.90;1.00;;;;;;5047890;28;19920;-76
2024/04/07 02:48:50;;;;;;;;;;;11.90;1.00;;;;;;5048596;28;19920;-76
2024/04/07 02:51:20;;;;;;;;;;;11.90;1.00;;;;;;5050273;28;19917;-76
2024/04/07 02:53:46;;;;;;;;;;;11.90;1.00;;;;;;5046831;28;19960;-75
2024/04/07 02:56:44;;;;;;;;;;;11.90;1.00;;;;;;5056711;28;19913;-76
2024/04/07 02:59:14;;;;;;;;;;;11.90;1.00;;;;;;5069556;28;19948;-76
2024/04/07 03:02:08;;;;;;;;;;;11.90;1.00;;;;;;5065232;28;19999;-76
2024/04/07 03:04:51;;;;;;;;;;;12.00;1.00;;;;;;5051221;28;19970;-76
2024/04/07 03:07:26;;;;;;;;;;;12.00;1.00;;;;;;5057589;28;19909;-76
2024/04/07 03:22:20;;;;;;;;;;;12.00;1.00;;;;;;5045007;28;19939;-77
2024/04/07 03:24:45;;;;;;;;;;;12.00;1.00;;;;;;5044893;28;20058;-77
2024/04/07 03:30:14;;;;;;;;;;;11.90;1.00;;;;;;5058372;28;19959;-77
2024/04/07 03:32:40;;;;;;;;;;;11.90;1.00;;;;;;5048869;28;19944;-77
2024/04/07 03:35:06;;;;;;;;;;;11.80;1.00;;;;;;5055305;28;20446;-78
2024/04/07 03:40:38;;;;;;;;;;;11.70;1.00;;;;;;5069948;28;19957;-76
2024/04/07 03:43:04;;;;;;;;;;;11.70;1.00;;;;;;5050190;28;20371;-76
2024/04/07 03:45:29;;;;;;;;;;;11.70;1.00;;;;;;5054325;28;19960;-76
2024/04/07 03:48:32;;;;;;;;;;;11.70;1.00;;;;;;5049688;28;19909;-76
2024/04/07 03:51:08;;;;;;;;;;;11.70;1.00;;;;;;5054025;28;19909;-76
2024/04/07 03:57:02;;;;;;;;;;;11.70;1.00;;;;;;5043032;28;20015;-76
2024/04/07 03:59:32;;;;;;;;;;;11.80;1.00;;;;;;5056044;28;19952;-76
2024/04/07 04:05:08;;;;;;;;;;;11.90;1.00;;;;;;5035469;28;19919;-75
2024/04/07 04:07:33;;;;;;;;;;;12.00;1.00;;;;;;5055282;28;20409;-76
2024/04/07 04:16:26;;;;;;;;;;;12.50;1.00;;;;;;5054546;28;19919;-77
2024/04/07 04:22:20;;;;;;;;;;;12.60;1.00;;;;;;5051615;28;19967;-77
2024/04/07 04:25:14;;;;;;;;;;;12.70;1.00;;;;;;5055309;28;19971;-77
2024/04/07 04:31:02;;;;;;;;;;;13.10;1.00;;;;;;5068167;28;20434;-77
2024/04/07 04:33:52;;;;;;;;;;;13.30;1.00;;;;;;5057765;28;19964;-77
2024/04/07 04:36:20;;;;;;;;;;;13.50;1.00;;;;;;5075368;28;19919;-77
2024/04/07 04:38:51;;;;;;;;;;;13.60;1.00;;;;;;5055201;28;19936;-77
2024/04/07 04:41:20;;;;;;;;;;;13.70;1.00;;;;;;5049315;28;19913;-78
2024/04/07 04:44:14;;;;;;;;;;;13.70;1.00;;;;;;5054911;28;19913;-77
2024/04/07 04:46:50;;;;;;;;;;;13.80;1.00;;;;;;5049902;28;19913;-77
2024/04/07 04:49:20;;;;;;;;;;;13.90;1.00;;;;;;5035006;28;19909;-77
2024/04/07 04:51:56;;;;;;;;;;;14.10;1.00;;;;;;5035062;28;19909;-77
2024/04/07 04:54:38;;;;;;;;;;;14.10;1.00;;;;;;5034770;28;19959;-76
2024/04/07 04:57:26;;;;;;;;;;;14.20;1.00;;;;;;5053932;28;19909;-76
2024/04/07 05:00:02;;;;;;;;;;;14.40;1.00;;;;;;5067859;28;19919;-77
2024/04/07 05:02:40;;;;;;;;;;;14.40;1.00;;;;;;5041419;28;19909;-76
2024/04/07 05:05:14;;;;;;;;;;;14.90;1.00;;;;;;5037756;28;19916;-76
2024/04/07 05:07:44;;;;;;;;;;;15.00;1.00;;;;;;5050430;28;19912;-76
2024/04/07 05:10:09;;;;;;;;;;;15.30;1.00;;;;;;5043088;28;19913;-76
2024/04/07 05:12:38;;;;;;;;;;;15.40;1.00;;;;;;5039852;28;19975;-75
2024/04/07 05:15:08;;;;;;;;;;;15.70;1.00;;;;;;5042728;28;19968;-75
2024/04/07 05:17:38;;;;;;;;;;;15.90;1.00;;;;;;5048485;28;19924;-76
2024/04/07 05:20:15;;;;;;;;;;;16.30;1.00;;;;;;5054148;28;19909;-76
2024/04/07 05:22:41;;;;;;;;;;;16.40;1.00;;;;;;5054320;28;19916;-75
2024/04/07 05:25:20;;;;;;;;;;;16.50;1.00;;;;;;5054249;28;19913;-75
2024/04/07 05:27:56;;;;;;;;;;;16.60;1.00;;;;;;5060460;28;20012;-76
2024/04/07 05:30:26;;;;;;;;;;;16.70;1.00;;;;;;5050958;28;19909;-77
2024/04/07 05:32:56;;;;;;;;;;;16.70;1.00;;;;;;5060456;28;19913;-77
2024/04/07 05:35:26;;;;;;;;;;;16.80;1.00;;;;;;5054375;28;19913;-78
2024/04/07 05:37:56;;;;;;;;;;;17.00;1.00;;;;;;5054088;28;19920;-77
2024/04/07 05:40:21;;;;;;;;;;;17.10;1.00;;;;;;5036774;28;19915;-77
2024/04/07 05:46:05;;;;;;;;;;;17.10;1.00;;;;;;5048578;28;19938;-77
2024/04/07 05:51:33;;;;;;;;;;;17.20;1.00;;;;;;5048778;28;19923;-79
2024/04/07 05:54:08;;;;;;;;;;;17.20;1.00;;;;;;5059978;28;19908;-77
2024/04/07 05:59:47;;;;;;;;;;;17.20;1.00;;;;;;5069319;28;19920;-79
2024/04/07 06:02:38;;;;;;;;;;;17.30;1.00;;;;;;5059937;28;19919;-78
2024/04/07 06:08:09;;;;;;;;;;;17.40;1.00;;;;;;5053093;28;19959;-79
2024/04/07 06:11:03;;;;;;;;;;;17.40;1.00;;;;;;5051619;28;20048;-79
2024/04/07 06:13:32;;;;;;;;;;;17.40;1.00;;;;;;5059045;28;20364;-77
2024/04/07 06:16:02;;;;;;;;;;;17.40;1.00;;;;;;5063694;28;20003;-78
2024/04/07 06:24:34;;;;;;;;;;;17.70;1.00;;;;;;5047489;28;19927;-77
2024/04/07 06:26:59;;;;;;;;;;;17.80;1.00;;;;;;5050367;28;19946;-78
2024/04/07 06:29:25;;;;;;;;;;;18.00;1.00;;;;;;5042977;28;19989;-78
2024/04/07 06:34:54;;;;;;;;;;;18.10;1.00;;;;;;5044257;28;19916;-78
2024/04/07 06:37:50;;;;;;;;;;;18.30;1.00;;;;;;5058182;28;19913;-78
2024/04/07 06:40:20;;;;;;;;;;;18.40;1.00;;;;;;5061865;28;19921;-76
2024/04/07 06:45:50;;;;;;;;;;;18.50;1.00;;;;;;5055066;28;20011;-76
2024/04/07 06:48:16;;;;;;;;;;;18.50;1.00;;;;;;5060160;28;20720;-76
2024/04/07 06:51:02;;;;;;;;;;;18.70;1.00;;;;;;5063068;28;19908;-75
2024/04/07 06:53:28;;;;;;;;;;;18.80;1.00;;;;;;5068011;28;19915;-76
2024/04/07 06:56:14;;;;;;;;;;;19.00;1.00;;;;;;5074624;28;19913;-75
2024/04/07 06:59:14;;;;;;;;;;;19.10;1.00;;;;;;5053540;28;19912;-76
2024/04/07 07:01:44;;;;;;;;;;;19.10;1.00;;;;;;5051641;28;19909;-77
2024/04/07 07:04:26;;;;;;;;;;;19.10;1.00;;;;;;5045947;28;19913;-76
2024/04/07 07:07:20;;;;;;;;;;;19.00;1.00;;;;;;5044341;28;19909;-77
2024/04/07 07:09:46;;;;;;;;;;;19.00;1.00;;;;;;5051454;28;19909;-76
2024/04/07 07:12:15;;;;;;;;;;;19.10;1.00;;;;;;5046062;28;19955;-76
2024/04/07 07:14:40;;;;;;;;;;;19.10;1.00;;;;;;5069791;28;19909;-75
2024/04/07 07:17:15;;;;;;;;;;;19.30;1.00;;;;;;5078238;28;19966;-75
2024/04/07 07:19:44;;;;;;;;;;;19.40;1.00;;;;;;5066085;28;19995;-75
2024/04/07 07:22:10;;;;;;;;;;;19.50;1.00;;;;;;5041383;28;19913;-75
2024/04/07 07:24:35;;;;;;;;;;;19.60;1.00;;;;;;5066556;28;19917;-75
2024/04/07 07:27:01;;;;;;;;;;;19.70;1.00;;;;;;5056190;28;19913;-75
2024/04/07 07:29:32;;;;;;;;;;;19.60;1.00;;;;;;5059496;28;19916;-75
2024/04/07 07:32:15;;;;;;;;;;;19.60;1.00;;;;;;5065230;28;19916;-75
2024/04/07 07:35:02;;;;;;;;;;;19.70;1.00;;;;;;5059265;28;19983;-75
2024/04/07 07:37:38;;;;;;;;;;;19.80;1.00;;;;;;5067823;28;19912;-75
2024/04/07 07:40:04;;;;;;;;;;;19.80;1.00;;;;;;5059611;28;19912;-76
2024/04/07 07:42:44;;;;;;;;;;;20.00;1.00;;;;;;5044720;28;20466;-75
2024/04/07 07:45:16;;;;;;;;;;;20.10;1.00;;;;;;5048916;28;19913;-75
2024/04/07 07:47:42;;;;;;;;;;;20.00;1.00;;;;;;5069988;28;19958;-76
2024/04/07 07:50:14;;;;;;;;;;;20.00;1.00;;;;;;5059230;28;20386;-75
2024/04/07 07:52:45;;;;;;;;;;;20.10;1.00;;;;;;5069416;28;19977;-74
2024/04/07 07:55:10;;;;;;;;;;;20.30;1.00;;;;;;5043943;28;19909;-74
2024/04/07 08:00:46;;;;;;;;;;;20.60;1.00;;;;;;5062896;28;20326;-76
2024/04/07 08:03:14;;;;;;;;;;;20.70;1.00;;;;;;5064532;28;19908;-76
2024/04/07 08:09:10;;;;;;;;;;;21.00;1.00;;;;;;5039494;28;19989;-76
2024/04/07 08:11:56;;;;;;;;;;;21.40;1.00;;;;;;5035952;28;19916;-74
2024/04/07 08:14:22;;;;;;;;;;;21.50;1.00;;;;;;5050571;28;19916;-75
2024/04/07 08:16:48;;;;;;;;;;;21.70;1.00;;;;;;5056234;28;19912;-74
2024/04/07 08:19:15;;;;;;;;;;;21.80;1.00;;;;;;5062751;28;19998;-75
2024/04/07 08:21:44;;;;;;;;;;;21.80;1.00;;;;;;5055095;28;20073;-76
2024/04/07 08:24:10;;;;;;;;;;;22.00;1.00;;;;;;5063234;28;19956;-76
2024/04/07 08:26:56;;;;;;;;;;;22.10;1.00;;;;;;5059993;28;20569;-75
2024/04/07 08:29:22;;;;;;;;;;;22.10;1.00;;;;;;5055170;28;19920;-75
2024/04/07 08:31:56;;;;;;;;;;;21.60;1.00;;;;;;5061300;28;19913;-77
2024/04/07 08:34:22;;;;;;;;;;;21.60;1.00;;;;;;5061203;28;19909;-76
2024/04/07 08:36:48;;;;;;;;;;;21.70;1.00;;;;;;5055363;28;19920;-76
2024/04/07 08:39:14;;;;;;;;;;;21.70;1.00;;;;;;5053471;28;20384;-76
2024/04/07 08:41:40;;;;;;;;;;;21.60;1.00;;;;;;5055671;28;19996;-75
2024/04/07 08:44:07;;;;;;;;;;;21.80;1.00;;;;;;5052683;28;19948;-76
2024/04/07 08:46:36;;;;;;;;;;;21.90;1.00;;;;;;5035196;28;19913;-76
2024/04/07 08:49:02;;;;;;;;;;;21.90;1.00;;;;;;5039547;28;19943;-77
2024/04/07 08:51:28;;;;;;;;;;;22.10;1.00;;;;;;5053645;28;19909;-77
2024/04/07 08:53:58;;;;;;;;;;;22.10;1.00;;;;;;5053403;28;20008;-77
2024/04/07 08:56:23;;;;;;;;;;;22.50;1.00;;;;;;5043548;28;19923;-76
2024/04/07 08:59:14;;;;;;;;;;;22.60;1.00;;;;;;5048203;28;20007;-77
2024/04/07 09:01:52;;;;;;;;;;;22.90;1.00;;;;;;5029920;28;20237;-76
2024/04/07 09:04:20;;;;;;;;;;;22.90;1.00;;;;;;5045924;28;19919;-77
2024/04/07 09:06:51;;;;;;;;;;;23.10;1.00;;;;;;5054492;28;19909;-76
2024/04/07 09:09:16;;;;;;;;;;;23.00;1.00;;;;;;5038348;28;19955;-77
2024/04/07 09:11:51;;;;;;;;;;;23.00;1.00;;;;;;5054693;28;19956;-77
2024/04/07 09:14:20;;;;;;;;;;;23.20;1.00;;;;;;5040893;28;19909;-76
2024/04/07 09:17:16;;;;;;;;;;;23.50;1.00;;;;;;5064444;28;19962;-76
2024/04/07 09:19:42;;;;;;;;;;;23.40;1.00;;;;;;4984727;28;19969;-76
2024/04/07 09:22:44;;;;;;;;;;;23.30;1.00;;;;;;4973407;28;19910;-76
2024/04/07 09:25:20;;;;;;;;;;;23.60;1.00;;;;;;4966515;28;19918;-76
2024/04/07 09:30:48;;;;;;;;;;;23.50;1.00;;;;;;4973484;28;19997;-76
2024/04/07 09:33:14;;;;;;;;;;;23.60;1.00;;;;;;4974186;28;19997;-76
2024/04/07 09:35:40;;;;;;;;;;;23.70;1.00;;;;;;4974033;28;19933;-76
2024/04/07 09:38:08;;;;;;;;;;;24.00;1.00;;;;;;4973927;28;20001;-76
2024/04/07 09:40:56;;;;;;;;;;;24.00;1.00;;;;;;4973738;28;19914;-76
2024/04/07 09:43:27;;;;;;;;;;;23.80;1.00;;;;;;4973759;28;19917;-76
2024/04/07 09:46:09;;;;;;;;;;;23.90;1.00;;;;;;4973685;28;19914;-76
2024/04/07 09:48:45;;;;;;;;;;;24.00;1.00;;;;;;4974726;28;19910;-77
2024/04/07 09:51:32;;;;;;;;;;;24.30;1.00;;;;;;4973858;28;19955;-76
2024/04/07 09:54:18;;;;;;;;;;;24.50;1.00;;;;;;4993437;28;19916;-76
2024/04/07 09:56:52;;;;;;;;;;;24.80;1.00;;;;;;5037911;28;19920;-76
2024/04/07 09:59:18;;;;;;;;;;;25.00;1.00;;;;;;5074080;28;19916;-77
2024/04/07 10:01:50;;;;;;;;;;;25.10;1.00;;;;;;5074488;28;19912;-77
2024/04/07 10:04:17;;;;;;;;;;;25.30;1.00;;;;;;5041250;28;20335;-76
2024/04/07 10:06:43;;;;;;;;;;;25.30;1.00;;;;;;5054317;28;20353;-76
2024/04/07 10:09:09;;;;;;;;;;;25.40;1.00;;;;;;5047254;28;19909;-76
2024/04/07 10:11:56;;;;;;;;;;;25.50;1.00;;;;;;5057897;28;19913;-76
2024/04/07 10:14:35;;;;;;;;;;;25.50;1.00;;;;;;5053338;28;20024;-77
2024/04/07 10:17:14;;;;;;;;;;;25.50;1.00;;;;;;5049231;28;19917;-76
2024/04/07 10:22:43;;;;;;;;;;;25.40;1.00;;;;;;5033846;28;19936;-77
2024/04/07 10:25:12;;;;;;;;;;;25.20;1.00;;;;;;5029395;28;20372;-77
2024/04/07 10:27:56;;;;;;;;;;;25.30;1.00;;;;;;5033763;28;20388;-77
2024/04/07 10:30:27;;;;;;;;;;;25.40;1.00;;;;;;5041171;28;19909;-77
2024/04/07 10:33:26;;;;;;;;;;;24.90;1.00;;;;;;5057993;28;19909;-78
2024/04/07 10:36:14;;;;;;;;;;;24.80;1.00;;;;;;5050055;28;19955;-77
2024/04/07 10:38:51;;;;;;;;;;;24.40;1.00;;;;;;5041295;28;20341;-75
2024/04/07 10:41:20;;;;;;;;;;;24.50;1.00;;;;;;5050032;28;19912;-75
2024/04/07 10:43:51;;;;;;;;;;;24.50;1.00;;;;;;5058112;28;19934;-75
2024/04/07 10:46:27;;;;;;;;;;;24.50;1.00;;;;;;5053093;28;19909;-75
2024/04/07 10:49:03;;;;;;;;;;;24.50;1.00;;;;;;5049540;28;20010;-76
2024/04/07 10:51:47;;;;;;;;;;;24.60;1.00;;;;;;5045155;28;19916;-76
2024/04/07 10:54:13;;;;;;;;;;;24.70;1.00;;;;;;5019846;28;20292;-76
2024/04/07 10:56:46;;;;;;;;;;;24.90;1.00;;;;;;5048314;28;19912;-76
2024/04/07 10:59:13;;;;;;;;;;;24.90;1.00;;;;;;5044318;28;19913;-76
2024/04/07 11:01:38;;;;;;;;;;;24.70;1.00;;;;;;5045881;28;19913;-75
2024/04/07 11:04:09;;;;;;;;;;;24.80;1.00;;;;;;5056878;28;19920;-76
2024/04/07 11:06:44;;;;;;;;;;;24.80;1.00;;;;;;5049075;28;20280;-76
2024/04/07 11:09:21;;;;;;;;;;;25.10;1.00;;;;;;5043815;28;20390;-76
2024/04/07 11:12:14;;;;;;;;;;;25.20;1.00;;;;;;5039095;28;19909;-77
2024/04/07 11:14:44;;;;;;;;;;;25.20;1.00;;;;;;5066226;28;19913;-76
2024/04/07 11:17:16;;;;;;;;;;;24.90;1.00;;;;;;5056712;28;19912;-74
2024/04/07 11:19:45;;;;;;;;;;;24.50;1.00;;;;;;5064636;28;19916;-74
2024/04/07 11:22:14;;;;;;;;;;;24.50;1.00;;;;;;5052372;28;19983;-74
2024/04/07 11:24:40;;;;;;;;;;;24.50;1.00;;;;;;5065921;28;19920;-74
2024/04/07 11:27:14;;;;;;;;;;;24.70;1.00;;;;;;5056206;28;19917;-76
2024/04/07 11:30:03;;;;;;;;;;;24.80;1.00;;;;;;5063663;28;19909;-76
2024/04/07 11:32:36;;;;;;;;;;;24.90;1.00;;;;;;5049240;28;19920;-75
2024/04/07 11:35:25;;;;;;;;;;;25.20;1.00;;;;;;5043665;28;19909;-76
2024/04/07 11:38:03;;;;;;;;;;;25.00;1.00;;;;;;5042961;28;19909;-76
2024/04/07 11:40:29;;;;;;;;;;;25.40;1.00;;;;;;5051273;28;19920;-76
2024/04/07 11:42:57;;;;;;;;;;;25.40;1.00;;;;;;5037242;28;19913;-75
2024/04/07 11:45:27;;;;;;;;;;;25.20;1.00;;;;;;5047919;28;19920;-76
2024/04/07 11:47:59;;;;;;;;;;;25.20;1.00;;;;;;5047672;28;19909;-76
2024/04/07 11:50:27;;;;;;;;;;;25.30;1.00;;;;;;5063672;28;19999;-76
2024/04/07 11:52:57;;;;;;;;;;;25.40;1.00;;;;;;5051720;28;19909;-75
2024/04/07 11:55:23;;;;;;;;;;;25.60;1.00;;;;;;5055913;28;19913;-76
2024/04/07 11:57:48;;;;;;;;;;;25.60;1.00;;;;;;5069082;28;19920;-76
2024/04/07 12:00:14;;;;;;;;;;;25.80;1.00;;;;;;5042442;28;19917;-76
2024/04/07 12:02:40;;;;;;;;;;;25.70;1.00;;;;;;5048926;28;20347;-76
2024/04/07 12:05:21;;;;;;;;;;;25.60;1.00;;;;;;5062786;28;19913;-76
2024/04/07 12:07:46;;;;;;;;;;;25.80;1.00;;;;;;5061817;28;20004;-77
2024/04/07 12:10:12;;;;;;;;;;;25.90;1.00;;;;;;5057227;28;19940;-76
2024/04/07 12:12:38;;;;;;;;;;;25.80;1.00;;;;;;5066651;28;19909;-76
2024/04/07 12:15:04;;;;;;;;;;;25.80;1.00;;;;;;5068570;28;20319;-78
2024/04/07 12:17:33;;;;;;;;;;;25.70;1.00;;;;;;5046956;28;19917;-76
2024/04/07 12:20:20;;;;;;;;;;;25.90;1.00;;;;;;5049192;28;19967;-76
2024/04/07 12:23:03;;;;;;;;;;;26.20;1.00;;;;;;5047040;28;19964;-76
2024/04/07 12:25:28;;;;;;;;;;;26.30;1.00;;;;;;5042441;28;19913;-76
2024/04/07 12:27:57;;;;;;;;;;;26.30;1.00;;;;;;5041932;28;19913;-76
2024/04/07 12:30:38;;;;;;;;;;;26.40;1.00;;;;;;5042949;28;20353;-77
2024/04/07 12:33:15;;;;;;;;;;;27.00;1.00;;;;;;5056496;28;19916;-78
2024/04/07 12:35:45;;;;;;;;;;;27.00;1.00;;;;;;5047710;28;19919;-77
2024/04/07 12:38:10;;;;;;;;;;;27.20;1.00;;;;;;5063315;28;19909;-77
2024/04/07 12:40:36;;;;;;;;;;;27.20;1.00;;;;;;5055082;28;19909;-77
2024/04/07 12:43:09;;;;;;;;;;;27.20;1.00;;;;;;5049283;28;19961;-76
2024/04/07 12:45:39;;;;;;;;;;;27.80;1.00;;;;;;5067081;28;20009;-76
2024/04/07 12:48:16;;;;;;;;;;;27.80;1.00;;;;;;5060493;28;20378;-76
2024/04/07 12:50:41;;;;;;;;;;;27.40;1.00;;;;;;5071378;28;19915;-76
2024/04/07 12:53:07;;;;;;;;;;;27.30;1.00;;;;;;5060142;28;19913;-76
2024/04/07 12:55:32;;;;;;;;;;;27.40;1.00;;;;;;5056756;28;20003;-75
2024/04/07 12:58:03;;;;;;;;;;;27.40;1.00;;;;;;5059045;28;20002;-75
2024/04/07 13:00:33;;;;;;;;;;;27.40;1.00;;;;;;5065804;28;19912;-75
2024/04/07 13:03:01;;;;;;;;;;;26.90;1.00;;;;;;5046420;28;20019;-76
2024/04/07 13:05:27;;;;;;;;;;;27.10;1.00;;;;;;5051788;28;19968;-76
2024/04/07 13:08:27;;;;;;;;;;;27.20;1.00;;;;;;5052758;28;19917;-76
2024/04/07 13:10:59;;;;;;;;;;;26.90;1.00;;;;;;5059182;28;19967;-75
2024/04/07 13:13:27;;;;;;;;;;;26.80;1.00;;;;;;5056110;28;19969;-76
2024/04/07 13:15:57;;;;;;;;;;;26.60;1.00;;;;;;5046730;28;19909;-76
2024/04/07 13:18:23;;;;;;;;;;;26.40;1.00;;;;;;5040927;28;20008;-76
2024/04/07 13:20:49;;;;;;;;;;;26.30;1.00;;;;;;5052909;28;19939;-76
2024/04/07 13:23:15;;;;;;;;;;;26.20;1.00;;;;;;5050914;28;19913;-76
2024/04/07 13:25:41;;;;;;;;;;;26.00;1.00;;;;;;5044438;28;19948;-76
2024/04/07 13:28:15;;;;;;;;;;;26.40;1.00;;;;;;5050014;28;20332;-76
2024/04/07 13:31:09;;;;;;;;;;;26.40;1.00;;;;;;5034397;28;19913;-77
2024/04/07 13:33:39;;;;;;;;;;;26.70;1.00;;;;;;5044576;28;19964;-75
2024/04/07 13:36:05;;;;;;;;;;;26.80;1.00;;;;;;5053638;28;19943;-75
2024/04/07 13:38:30;;;;;;;;;;;27.10;1.00;;;;;;5053716;28;20084;-75
2024/04/07 13:40:56;;;;;;;;;;;28.40;1.00;;;;;;5050652;28;19915;-75
2024/04/07 13:43:27;;;;;;;;;;;27.60;1.00;;;;;;5054577;28;20372;-76
2024/04/07 13:45:52;;;;;;;;;;;27.80;1.00;;;;;;5059934;28;19919;-76
2024/04/07 13:48:18;;;;;;;;;;;27.80;1.00;;;;;;5043740;28;19914;-76
2024/04/07 13:50:53;;;;;;;;;;;27.70;1.00;;;;;;5052677;28;19998;-77
2024/04/07 13:53:27;;;;;;;;;;;27.70;1.00;;;;;;5062853;28;19913;-77
2024/04/07 13:56:03;;;;;;;;;;;27.60;1.00;;;;;;5047051;28;19936;-77
2024/04/07 14:01:39;;;;;;;;;;;27.60;1.00;;;;;;5044756;28;19919;-75
2024/04/07 14:04:05;;;;;;;;;;;27.30;1.00;;;;;;5053446;28;19913;-74
2024/04/07 14:06:30;;;;;;;;;;;27.40;1.00;;;;;;5053426;28;19915;-74
2024/04/07 14:08:56;;;;;;;;;;;27.70;1.00;;;;;;5066271;28;19944;-74
2024/04/07 14:11:21;;;;;;;;;;;27.40;1.00;;;;;;5042235;28;19909;-74
2024/04/07 14:13:47;;;;;;;;;;;27.40;1.00;;;;;;5053019;28;19909;-74
2024/04/07 14:16:15;;;;;;;;;;;27.40;1.00;;;;;;5041805;28;20135;-74
2024/04/07 14:18:51;;;;;;;;;;;27.70;1.00;;;;;;5052365;28;19960;-76
2024/04/07 14:21:33;;;;;;;;;;;27.80;1.00;;;;;;5053132;28;19963;-77
2024/04/07 14:24:03;;;;;;;;;;;27.60;1.00;;;;;;5052989;28;19921;-75
2024/04/07 14:26:29;;;;;;;;;;;27.70;1.00;;;;;;5037143;28;20050;-76
2024/04/07 14:28:57;;;;;;;;;;;27.90;1.00;;;;;;5055960;28;20352;-76
2024/04/07 14:31:22;;;;;;;;;;;27.70;1.00;;;;;;5054468;28;19963;-76
2024/04/07 14:33:48;;;;;;;;;;;27.70;1.00;;;;;;5054448;28;19912;-76
2024/04/07 14:36:14;;;;;;;;;;;28.00;1.00;;;;;;5065177;28;19917;-76
2024/04/07 14:41:45;;;;;;;;;;;28.00;1.00;;;;;;5058521;28;20302;-80
2024/04/07 14:44:11;;;;;;;;;;;27.80;1.00;;;;;;5053400;28;19967;-83
2024/04/07 14:46:39;;;;;;;;;;;27.80;1.00;;;;;;5052918;28;19913;-83
2024/04/07 14:49:13;;;;;;;;;;;28.00;1.00;;;;;;5054737;28;19909;-77
2024/04/07 14:51:42;;;;;;;;;;;28.20;1.00;;;;;;5046836;28;19948;-75
2024/04/07 14:54:11;;;;;;;;;;;28.10;1.00;;;;;;5040455;28;19966;-75
2024/04/07 14:56:39;;;;;;;;;;;27.50;1.00;;;;;;5052752;28;19909;-75
2024/04/07 14:59:09;;;;;;;;;;;27.50;1.00;;;;;;5061043;28;19909;-75
2024/04/07 15:01:39;;;;;;;;;;;27.30;1.00;;;;;;5056080;28;19916;-75
2024/04/07 15:04:05;;;;;;;;;;;27.30;1.00;;;;;;5059565;28;19970;-75
2024/04/07 15:06:45;;;;;;;;;;;27.20;1.00;;;;;;5074940;28;19909;-77
2024/04/07 15:09:11;;;;;;;;;;;27.10;1.00;;;;;;5061707;28;19966;-77
2024/04/07 15:11:39;;;;;;;;;;;27.30;1.00;;;;;;5068151;28;19913;-76
2024/04/07 15:14:05;;;;;;;;;;;27.20;1.00;;;;;;5052685;28;20475;-74
2024/04/07 15:16:32;;;;;;;;;;;27.10;1.00;;;;;;5068513;28;19958;-75
2024/04/07 15:18:58;;;;;;;;;;;27.30;1.00;;;;;;5056920;28;19920;-77
2024/04/07 15:21:24;;;;;;;;;;;27.40;1.00;;;;;;5056103;28;20027;-75
2024/04/07 15:23:57;;;;;;;;;;;27.30;1.00;;;;;;5048037;28;20488;-75
2024/04/07 15:26:23;;;;;;;;;;;27.50;1.00;;;;;;5039711;28;19917;-74
2024/04/07 15:28:48;;;;;;;;;;;27.60;1.00;;;;;;5052724;28;19916;-74
2024/04/07 15:31:14;;;;;;;;;;;27.60;1.00;;;;;;5059891;28;19912;-74
2024/04/07 15:33:40;;;;;;;;;;;27.60;1.00;;;;;;5050716;28;19909;-75
2024/04/07 15:36:07;;;;;;;;;;;27.40;1.00;;;;;;5049929;28;20372;-74
2024/04/07 15:38:33;;;;;;;;;;;27.10;1.00;;;;;;5056752;28;19920;-78
2024/04/07 15:40:59;;;;;;;;;;;27.10;1.00;;;;;;5057434;28;19920;-76
2024/04/07 15:43:25;;;;;;;;;;;27.00;1.00;;;;;;5056157;28;19913;-76
2024/04/07 15:45:51;;;;;;;;;;;27.00;1.00;;;;;;5042910;28;19924;-77
2024/04/07 15:48:27;;;;;;;;;;;27.00;1.00;;;;;;5061684;28;19908;-77
2024/04/07 15:51:05;;;;;;;;;;;27.00;1.00;;;;;;5058457;28;20016;-77
2024/04/07 15:53:40;;;;;;;;;;;26.90;1.00;;;;;;5046244;28;20387;-76
2024/04/07 15:56:05;;;;;;;;;;;26.80;1.00;;;;;;5044726;28;19908;-76
2024/04/07 15:58:31;;;;;;;;;;;26.80;1.00;;;;;;5042445;28;19916;-76
2024/04/07 16:00:58;;;;;;;;;;;26.60;1.00;;;;;;5039234;28;19917;-76
2024/04/07 16:03:33;;;;;;;;;;;26.40;1.00;;;;;;5063785;28;19913;-76
2024/04/07 16:06:33;;;;;;;;;;;26.10;1.00;;;;;;5042425;28;19921;-76
2024/04/07 16:09:03;;;;;;;;;;;26.00;1.00;;;;;;5036027;28;19913;-76
2024/04/07 16:11:29;;;;;;;;;;;25.80;1.00;;;;;;5047536;28;19909;-75
2024/04/07 16:14:15;;;;;;;;;;;25.50;1.00;;;;;;5055134;28;19909;-74
2024/04/07 16:16:45;;;;;;;;;;;25.40;1.00;;;;;;5059890;28;19920;-75
2024/04/07 16:19:15;;;;;;;;;;;25.40;1.00;;;;;;5055315;28;19913;-75
2024/04/07 16:21:45;;;;;;;;;;;25.30;1.00;;;;;;5036958;28;19913;-75
2024/04/07 16:24:15;;;;;;;;;;;25.30;1.00;;;;;;5055775;28;19913;-76
2024/04/07 16:27:15;;;;;;;;;;;25.20;1.00;;;;;;5054972;28;19917;-81
2024/04/07 16:29:47;;;;;;;;;;;25.10;1.00;;;;;;5066898;28;19916;-81
2024/04/07 16:32:45;;;;;;;;;;;24.80;1.00;;;;;;5047383;28;20280;-81
2024/04/07 16:35:11;;;;;;;;;;;24.60;1.00;;;;;;5055733;28;19955;-81
2024/04/07 16:37:51;;;;;;;;;;;24.90;1.00;;;;;;5036994;28;19912;-76
2024/04/07 16:40:17;;;;;;;;;;;24.70;1.00;;;;;;5053248;28;20263;-76
2024/04/07 16:42:46;;;;;;;;;;;24.70;1.00;;;;;;5058837;28;19913;-77
2024/04/07 16:45:12;;;;;;;;;;;24.60;1.00;;;;;;5053467;28;20363;-77
2024/04/07 16:47:37;;;;;;;;;;;24.50;1.00;;;;;;5054110;28;19962;-77
2024/04/07 16:50:03;;;;;;;;;;;24.40;1.00;;;;;;5046916;28;19912;-77
2024/04/07 16:52:51;;;;;;;;;;;24.20;1.00;;;;;;5052324;28;20268;-77
2024/04/07 16:55:27;;;;;;;;;;;24.20;1.00;;;;;;5062116;28;19944;-76
2024/04/07 16:58:27;;;;;;;;;;;24.20;1.00;;;;;;5049438;28;19955;-89
2024/04/07 17:01:22;;;;;;;;;;;24.20;1.00;;;;;;5034326;28;20390;-82
2024/04/07 17:07:09;;;;;;;;;;;24.10;1.00;;;;;;5041574;28;19967;-76